Airfield :
LOGIN :

Register | Disclaimer

   EN    FR    IT 

 










Legend :    VFR   Marginal VFR   IFR   Intensive IFR   Very Intensive IFR
Visi :
Ceiling :
>= 8 km
>= 3000ft
5 to 8 km
1000 to 3000 ft
1500m to 5 km
500 to 1000 ft
800 to 1500m
200 to 500 ft
< 800m
< 200 ft
Symbols :   Thunderstorms  Fog  Heavy snow  Heavy precipitations  Wind > 20 kt
SIGMETs :     Misc.  Thunderstorms  Icing  Turbulence  Mountain Waves  Volcanic Ashes






- Airport Elevation : 280 ft
- IATA code : FAE


EKVG - Vagar

CURRENT METAR :
  • 241520Z AUTO 18010KT 9999 SCT023/// 07/04 Q0993

EXPIRED METARs :
  • 241450Z AUTO 19011KT 9999 FEW055/// 07/04 Q0993
  • 241420Z AUTO 20011KT 9999 FEW023/// SCT030/// SCT049/// 07/04 Q0993
  • 241350Z AUTO 20014KT 9999 SCT025/// 07/04 Q0993
  • 241320Z AUTO 19013KT 9999 FEW025/// 07/04 Q0993
  • 241250Z AUTO 19014KT 9999 BKN022/// 07/05 Q0993

TAF TAF EKVG
Valid from the 24 at 15:00 until the 25 at 00:00 UTC


241421Z 2415/2424 20015KT 9999 BKN020
BECMG 2419/2421 14008KT



MET'MAP, your aeronautical weather chart ! - Copyright ORBIFLY December 2007 - Disclaimer

ORBIFLY MET'MAP TEAM :

Programming & Development : Alexandra Zaïnal
Concept & original design : Baudouin d'Aumeries
Assistance for programming : Marc-Olivier Méhu
Technical & hardware support : Manuel Goepfert

Contact : metmap@orbifly.com




SOURCES & CREDITS :

   NOAA